sensor_id;sensor_type;location;lat;lon;timestamp;temperature;humidity
59572;DHT22;59406;45.602;11.904;2023-03-05T00:00:49;4.60;85.00
59572;DHT22;59406;45.602;11.904;2023-03-05T00:03:15;4.70;86.00
59572;DHT22;59406;45.602;11.904;2023-03-05T00:05:41;4.70;85.80
59572;DHT22;59406;45.602;11.904;2023-03-05T00:08:07;4.70;85.40
59572;DHT22;59406;45.602;11.904;2023-03-05T00:10:33;4.70;84.70
59572;DHT22;59406;45.602;11.904;2023-03-05T00:12:59;4.60;85.30
59572;DHT22;59406;45.602;11.904;2023-03-05T00:15:25;4.50;85.40
59572;DHT22;59406;45.602;11.904;2023-03-05T00:17:51;4.30;86.10
59572;DHT22;59406;45.602;11.904;2023-03-05T00:20:17;4.50;86.20
59572;DHT22;59406;45.602;11.904;2023-03-05T00:22:42;4.40;86.20
59572;DHT22;59406;45.602;11.904;2023-03-05T00:25:08;4.20;86.10
59572;DHT22;59406;45.602;11.904;2023-03-05T00:27:34;4.30;85.80
59572;DHT22;59406;45.602;11.904;2023-03-05T00:30:00;4.30;85.30
59572;DHT22;59406;45.602;11.904;2023-03-05T00:32:26;4.30;84.90
59572;DHT22;59406;45.602;11.904;2023-03-05T00:34:52;4.10;84.50
59572;DHT22;59406;45.602;11.904;2023-03-05T00:37:18;4.30;85.30
59572;DHT22;59406;45.602;11.904;2023-03-05T00:39:44;4.30;85.50
59572;DHT22;59406;45.602;11.904;2023-03-05T00:42:10;4.40;86.40
59572;DHT22;59406;45.602;11.904;2023-03-05T00:44:36;4.20;86.30
59572;DHT22;59406;45.602;11.904;2023-03-05T00:47:02;4.00;85.90
59572;DHT22;59406;45.602;11.904;2023-03-05T00:49:29;4.10;85.80
59572;DHT22;59406;45.602;11.904;2023-03-05T00:51:55;4.10;86.60
59572;DHT22;59406;45.602;11.904;2023-03-05T00:54:21;3.80;86.10
59572;DHT22;59406;45.602;11.904;2023-03-05T00:56:47;4.00;86.00
59572;DHT22;59406;45.602;11.904;2023-03-05T00:59:13;3.90;85.90
59572;DHT22;59406;45.602;11.904;2023-03-05T01:01:40;3.90;86.00
59572;DHT22;59406;45.602;11.904;2023-03-05T01:04:06;3.70;86.10
59572;DHT22;59406;45.602;11.904;2023-03-05T01:06:31;3.80;85.70
59572;DHT22;59406;45.602;11.904;2023-03-05T01:08:57;3.80;85.40
59572;DHT22;59406;45.602;11.904;2023-03-05T01:11:24;3.70;85.70
59572;DHT22;59406;45.602;11.904;2023-03-05T01:13:50;3.70;86.40
59572;DHT22;59406;45.602;11.904;2023-03-05T01:16:16;3.70;86.10
59572;DHT22;59406;45.602;11.904;2023-03-05T01:18:42;3.60;86.10
59572;DHT22;59406;45.602;11.904;2023-03-05T01:21:08;3.50;86.90
59572;DHT22;59406;45.602;11.904;2023-03-05T01:23:35;3.50;86.90
59572;DHT22;59406;45.602;11.904;2023-03-05T01:26:02;3.80;87.00
59572;DHT22;59406;45.602;11.904;2023-03-05T01:28:28;3.40;87.00
59572;DHT22;59406;45.602;11.904;2023-03-05T01:30:55;3.30;86.50
59572;DHT22;59406;45.602;11.904;2023-03-05T01:33:21;3.30;87.20
59572;DHT22;59406;45.602;11.904;2023-03-05T01:35:48;3.50;87.20
59572;DHT22;59406;45.602;11.904;2023-03-05T01:38:15;3.50;86.80
59572;DHT22;59406;45.602;11.904;2023-03-05T01:40:41;3.40;86.50
59572;DHT22;59406;45.602;11.904;2023-03-05T01:45:38;3.30;86.00
59572;DHT22;59406;45.602;11.904;2023-03-05T01:48:04;3.10;86.50
59572;DHT22;59406;45.602;11.904;2023-03-05T01:50:30;3.00;86.50
59572;DHT22;59406;45.602;11.904;2023-03-05T01:53:02;2.80;86.30
59572;DHT22;59406;45.602;11.904;2023-03-05T01:55:30;3.00;86.30
59572;DHT22;59406;45.602;11.904;2023-03-05T01:58:10;2.90;86.20
59572;DHT22;59406;45.602;11.904;2023-03-05T02:00:44;2.80;86.90
59572;DHT22;59406;45.602;11.904;2023-03-05T02:03:12;3.00;86.50
59572;DHT22;59406;45.602;11.904;2023-03-05T02:05:39;3.00;86.90
59572;DHT22;59406;45.602;11.904;2023-03-05T02:08:10;2.80;87.30
59572;DHT22;59406;45.602;11.904;2023-03-05T02:10:48;3.00;87.30
59572;DHT22;59406;45.602;11.904;2023-03-05T02:13:21;3.10;87.10
59572;DHT22;59406;45.602;11.904;2023-03-05T02:15:47;3.10;87.30
59572;DHT22;59406;45.602;11.904;2023-03-05T02:18:16;2.90;86.80
59572;DHT22;59406;45.602;11.904;2023-03-05T02:23:20;3.00;87.10
59572;DHT22;59406;45.602;11.904;2023-03-05T02:25:47;2.60;87.40
59572;DHT22;59406;45.602;11.904;2023-03-05T02:28:37;2.60;87.00
59572;DHT22;59406;45.602;11.904;2023-03-05T02:31:14;2.70;87.50
59572;DHT22;59406;45.602;11.904;2023-03-05T02:33:40;2.60;87.20
59572;DHT22;59406;45.602;11.904;2023-03-05T02:36:07;2.70;87.60
59572;DHT22;59406;45.602;11.904;2023-03-05T02:38:33;2.70;87.30
59572;DHT22;59406;45.602;11.904;2023-03-05T02:40:59;2.70;87.00
59572;DHT22;59406;45.602;11.904;2023-03-05T02:43:25;2.80;86.90
59572;DHT22;59406;45.602;11.904;2023-03-05T02:45:51;2.80;87.80
59572;DHT22;59406;45.602;11.904;2023-03-05T02:48:17;2.80;87.30
59572;DHT22;59406;45.602;11.904;2023-03-05T02:50:44;2.70;87.70
59572;DHT22;59406;45.602;11.904;2023-03-05T02:53:10;2.60;87.50
59572;DHT22;59406;45.602;11.904;2023-03-05T02:55:39;2.80;87.80
59572;DHT22;59406;45.602;11.904;2023-03-05T02:58:05;2.80;86.90
59572;DHT22;59406;45.602;11.904;2023-03-05T03:00:32;2.80;87.00
59572;DHT22;59406;45.602;11.904;2023-03-05T03:02:58;2.50;86.60
59572;DHT22;59406;45.602;11.904;2023-03-05T03:05:23;2.80;86.50
59572;DHT22;59406;45.602;11.904;2023-03-05T03:07:50;2.60;86.60
59572;DHT22;59406;45.602;11.904;2023-03-05T03:10:15;2.60;86.70
59572;DHT22;59406;45.602;11.904;2023-03-05T03:12:43;2.60;87.50
59572;DHT22;59406;45.602;11.904;2023-03-05T03:15:11;2.60;87.20
59572;DHT22;59406;45.602;11.904;2023-03-05T03:17:38;2.70;86.40
59572;DHT22;59406;45.602;11.904;2023-03-05T03:20:06;2.60;86.60
59572;DHT22;59406;45.602;11.904;2023-03-05T03:22:32;2.70;86.70
59572;DHT22;59406;45.602;11.904;2023-03-05T03:24:58;2.60;86.90
59572;DHT22;59406;45.602;11.904;2023-03-05T03:27:24;2.70;86.40
59572;DHT22;59406;45.602;11.904;2023-03-05T03:29:50;2.60;86.30
59572;DHT22;59406;45.602;11.904;2023-03-05T03:32:16;2.30;85.90
59572;DHT22;59406;45.602;11.904;2023-03-05T03:34:42;2.60;86.30
59572;DHT22;59406;45.602;11.904;2023-03-05T03:37:09;2.30;86.40
59572;DHT22;59406;45.602;11.904;2023-03-05T03:39:35;2.50;87.10
59572;DHT22;59406;45.602;11.904;2023-03-05T03:42:01;2.60;87.60
59572;DHT22;59406;45.602;11.904;2023-03-05T03:44:27;2.40;87.10
59572;DHT22;59406;45.602;11.904;2023-03-05T03:46:53;2.40;87.30
59572;DHT22;59406;45.602;11.904;2023-03-05T03:49:22;2.60;87.90
59572;DHT22;59406;45.602;11.904;2023-03-05T03:51:50;2.50;87.60
59572;DHT22;59406;45.602;11.904;2023-03-05T03:54:17;2.80;87.90
59572;DHT22;59406;45.602;11.904;2023-03-05T03:56:43;2.40;87.70
59572;DHT22;59406;45.602;11.904;2023-03-05T03:59:10;2.60;87.70
59572;DHT22;59406;45.602;11.904;2023-03-05T04:01:36;2.50;87.40
59572;DHT22;59406;45.602;11.904;2023-03-05T04:04:03;2.50;87.70
59572;DHT22;59406;45.602;11.904;2023-03-05T04:06:30;2.40;86.80
59572;DHT22;59406;45.602;11.904;2023-03-05T04:08:56;2.20;87.10
59572;DHT22;59406;45.602;11.904;2023-03-05T04:11:22;2.40;87.60
59572;DHT22;59406;45.602;11.904;2023-03-05T04:13:48;2.50;87.80
59572;DHT22;59406;45.602;11.904;2023-03-05T04:16:15;2.70;87.70
59572;DHT22;59406;45.602;11.904;2023-03-05T04:18:41;2.40;88.00
59572;DHT22;59406;45.602;11.904;2023-03-05T04:21:08;2.40;88.40
59572;DHT22;59406;45.602;11.904;2023-03-05T04:23:34;2.50;88.70
59572;DHT22;59406;45.602;11.904;2023-03-05T04:26:00;2.50;88.50
59572;DHT22;59406;45.602;11.904;2023-03-05T04:28:26;2.70;87.90
59572;DHT22;59406;45.602;11.904;2023-03-05T04:30:51;2.70;87.90
59572;DHT22;59406;45.602;11.904;2023-03-05T04:33:17;2.60;87.10
59572;DHT22;59406;45.602;11.904;2023-03-05T04:35:43;2.60;87.70
59572;DHT22;59406;45.602;11.904;2023-03-05T04:38:09;2.30;88.20
59572;DHT22;59406;45.602;11.904;2023-03-05T04:40:36;2.50;88.20
59572;DHT22;59406;45.602;11.904;2023-03-05T04:43:02;2.60;88.30
59572;DHT22;59406;45.602;11.904;2023-03-05T04:45:28;2.40;87.70
59572;DHT22;59406;45.602;11.904;2023-03-05T04:47:54;2.50;87.60
59572;DHT22;59406;45.602;11.904;2023-03-05T04:50:20;2.30;87.70
59572;DHT22;59406;45.602;11.904;2023-03-05T04:52:46;2.40;87.40
59572;DHT22;59406;45.602;11.904;2023-03-05T04:55:14;2.30;87.60
59572;DHT22;59406;45.602;11.904;2023-03-05T04:57:41;2.20;87.70
59572;DHT22;59406;45.602;11.904;2023-03-05T05:00:10;2.40;87.10
59572;DHT22;59406;45.602;11.904;2023-03-05T05:02:41;2.20;86.80
59572;DHT22;59406;45.602;11.904;2023-03-05T05:05:09;2.40;87.00
59572;DHT22;59406;45.602;11.904;2023-03-05T05:07:37;2.20;86.90
59572;DHT22;59406;45.602;11.904;2023-03-05T05:10:03;2.20;86.80
59572;DHT22;59406;45.602;11.904;2023-03-05T05:12:29;2.30;86.60
59572;DHT22;59406;45.602;11.904;2023-03-05T05:14:58;2.10;86.80
59572;DHT22;59406;45.602;11.904;2023-03-05T05:17:24;2.20;86.70
59572;DHT22;59406;45.602;11.904;2023-03-05T05:19:50;2.10;87.40
59572;DHT22;59406;45.602;11.904;2023-03-05T05:22:16;2.00;87.90
59572;DHT22;59406;45.602;11.904;2023-03-05T05:24:42;2.20;88.00
59572;DHT22;59406;45.602;11.904;2023-03-05T05:27:08;1.90;88.00
59572;DHT22;59406;45.602;11.904;2023-03-05T05:29:34;2.10;88.00
59572;DHT22;59406;45.602;11.904;2023-03-05T05:31:59;2.10;87.80
59572;DHT22;59406;45.602;11.904;2023-03-05T05:34:26;1.90;87.40
59572;DHT22;59406;45.602;11.904;2023-03-05T05:36:52;1.80;88.00
59572;DHT22;59406;45.602;11.904;2023-03-05T05:39:18;2.00;88.10
59572;DHT22;59406;45.602;11.904;2023-03-05T05:41:51;1.90;87.20
59572;DHT22;59406;45.602;11.904;2023-03-05T05:44:17;2.00;86.90
59572;DHT22;59406;45.602;11.904;2023-03-05T05:46:43;1.80;87.30
59572;DHT22;59406;45.602;11.904;2023-03-05T05:49:09;1.90;87.50
59572;DHT22;59406;45.602;11.904;2023-03-05T05:51:35;2.10;87.60
59572;DHT22;59406;45.602;11.904;2023-03-05T05:54:01;1.90;87.80
59572;DHT22;59406;45.602;11.904;2023-03-05T05:56:27;2.00;88.20
59572;DHT22;59406;45.602;11.904;2023-03-05T05:58:53;2.10;88.80
59572;DHT22;59406;45.602;11.904;2023-03-05T06:01:25;2.30;88.00
59572;DHT22;59406;45.602;11.904;2023-03-05T06:03:52;2.30;87.70
59572;DHT22;59406;45.602;11.904;2023-03-05T06:06:21;2.20;87.70
59572;DHT22;59406;45.602;11.904;2023-03-05T06:08:48;2.50;87.60
59572;DHT22;59406;45.602;11.904;2023-03-05T06:11:14;2.50;87.60
59572;DHT22;59406;45.602;11.904;2023-03-05T06:13:40;2.70;87.30
59572;DHT22;59406;45.602;11.904;2023-03-05T06:16:10;2.90;88.00
59572;DHT22;59406;45.602;11.904;2023-03-05T06:18:36;2.80;87.80
59572;DHT22;59406;45.602;11.904;2023-03-05T06:21:05;3.00;88.20
59572;DHT22;59406;45.602;11.904;2023-03-05T06:23:32;3.20;88.50
59572;DHT22;59406;45.602;11.904;2023-03-05T06:28:28;3.50;88.10
59572;DHT22;59406;45.602;11.904;2023-03-05T06:31:07;4.20;87.80
59572;DHT22;59406;45.602;11.904;2023-03-05T06:33:34;4.10;87.20
59572;DHT22;59406;45.602;11.904;2023-03-05T06:36:04;4.30;87.20
59572;DHT22;59406;45.602;11.904;2023-03-05T06:38:30;4.80;87.00
59572;DHT22;59406;45.602;11.904;2023-03-05T06:41:00;4.90;86.80
59572;DHT22;59406;45.602;11.904;2023-03-05T06:43:26;5.40;86.40
59572;DHT22;59406;45.602;11.904;2023-03-05T06:46:02;5.60;86.00
59572;DHT22;59406;45.602;11.904;2023-03-05T06:48:29;5.80;85.80
59572;DHT22;59406;45.602;11.904;2023-03-05T06:50:55;6.10;85.50
59572;DHT22;59406;45.602;11.904;2023-03-05T06:53:23;6.50;85.40
59572;DHT22;59406;45.602;11.904;2023-03-05T06:55:49;6.90;85.50
59572;DHT22;59406;45.602;11.904;2023-03-05T06:58:15;7.10;84.40
59572;DHT22;59406;45.602;11.904;2023-03-05T07:00:41;7.20;84.20
59572;DHT22;59406;45.602;11.904;2023-03-05T07:03:07;7.50;84.50
59572;DHT22;59406;45.602;11.904;2023-03-05T07:05:37;7.80;84.40
59572;DHT22;59406;45.602;11.904;2023-03-05T07:08:03;8.00;83.80
59572;DHT22;59406;45.602;11.904;2023-03-05T07:10:29;8.20;83.30
59572;DHT22;59406;45.602;11.904;2023-03-05T07:12:55;8.40;83.70
59572;DHT22;59406;45.602;11.904;2023-03-05T07:15:21;8.40;84.10
59572;DHT22;59406;45.602;11.904;2023-03-05T07:17:47;8.30;83.30
59572;DHT22;59406;45.602;11.904;2023-03-05T07:20:13;8.30;83.70
59572;DHT22;59406;45.602;11.904;2023-03-05T07:22:39;8.50;83.90
59572;DHT22;59406;45.602;11.904;2023-03-05T07:25:05;8.50;83.60
59572;DHT22;59406;45.602;11.904;2023-03-05T07:27:35;8.70;83.50
59572;DHT22;59406;45.602;11.904;2023-03-05T07:30:01;8.90;83.20
59572;DHT22;59406;45.602;11.904;2023-03-05T07:32:28;9.00;82.80
59572;DHT22;59406;45.602;11.904;2023-03-05T07:34:53;9.20;82.70
59572;DHT22;59406;45.602;11.904;2023-03-05T07:37:19;9.50;82.10
59572;DHT22;59406;45.602;11.904;2023-03-05T07:39:45;9.80;81.80
59572;DHT22;59406;45.602;11.904;2023-03-05T07:42:11;10.10;81.40
59572;DHT22;59406;45.602;11.904;2023-03-05T07:44:37;10.40;81.30
59572;DHT22;59406;45.602;11.904;2023-03-05T07:47:04;10.70;80.70
59572;DHT22;59406;45.602;11.904;2023-03-05T07:49:30;10.90;80.30
59572;DHT22;59406;45.602;11.904;2023-03-05T07:51:56;11.00;80.00
59572;DHT22;59406;45.602;11.904;2023-03-05T07:54:22;10.90;80.00
59572;DHT22;59406;45.602;11.904;2023-03-05T07:56:47;11.00;80.10
59572;DHT22;59406;45.602;11.904;2023-03-05T07:59:13;11.30;80.60
59572;DHT22;59406;45.602;11.904;2023-03-05T08:01:39;12.00;80.20
59572;DHT22;59406;45.602;11.904;2023-03-05T08:04:06;12.10;79.30
59572;DHT22;59406;45.602;11.904;2023-03-05T08:06:32;12.60;79.00
59572;DHT22;59406;45.602;11.904;2023-03-05T08:08:58;13.00;77.20
59572;DHT22;59406;45.602;11.904;2023-03-05T08:11:24;13.40;76.40
59572;DHT22;59406;45.602;11.904;2023-03-05T08:13:50;13.90;76.10
59572;DHT22;59406;45.602;11.904;2023-03-05T08:16:20;14.30;75.70
59572;DHT22;59406;45.602;11.904;2023-03-05T08:18:48;14.40;75.00
59572;DHT22;59406;45.602;11.904;2023-03-05T08:21:25;14.70;73.70
59572;DHT22;59406;45.602;11.904;2023-03-05T08:23:51;15.00;73.70
59572;DHT22;59406;45.602;11.904;2023-03-05T08:26:20;15.00;72.60
59572;DHT22;59406;45.602;11.904;2023-03-05T08:28:46;15.10;73.00
59572;DHT22;59406;45.602;11.904;2023-03-05T08:31:14;15.50;71.60
59572;DHT22;59406;45.602;11.904;2023-03-05T08:33:41;16.20;70.50
59572;DHT22;59406;45.602;11.904;2023-03-05T08:36:08;16.70;69.60
59572;DHT22;59406;45.602;11.904;2023-03-05T08:38:34;16.80;68.30
59572;DHT22;59406;45.602;11.904;2023-03-05T08:41:01;17.10;68.50
59572;DHT22;59406;45.602;11.904;2023-03-05T08:43:27;17.60;69.00
59572;DHT22;59406;45.602;11.904;2023-03-05T08:45:53;18.00;68.40
59572;DHT22;59406;45.602;11.904;2023-03-05T08:48:19;18.50;67.10
59572;DHT22;59406;45.602;11.904;2023-03-05T08:50:45;18.10;67.10
59572;DHT22;59406;45.602;11.904;2023-03-05T08:53:12;17.80;66.60
59572;DHT22;59406;45.602;11.904;2023-03-05T08:55:37;18.30;66.70
59572;DHT22;59406;45.602;11.904;2023-03-05T08:58:03;18.90;64.70
59572;DHT22;59406;45.602;11.904;2023-03-05T09:00:29;19.00;64.00
59572;DHT22;59406;45.602;11.904;2023-03-05T09:02:55;18.60;64.70
59572;DHT22;59406;45.602;11.904;2023-03-05T09:05:21;18.50;64.60
59572;DHT22;59406;45.602;11.904;2023-03-05T09:07:48;18.30;64.00
59572;DHT22;59406;45.602;11.904;2023-03-05T09:10:14;18.10;65.80
59572;DHT22;59406;45.602;11.904;2023-03-05T09:12:41;18.40;64.80
59572;DHT22;59406;45.602;11.904;2023-03-05T09:15:08;18.40;64.30
59572;DHT22;59406;45.602;11.904;2023-03-05T09:17:35;18.40;63.80
59572;DHT22;59406;45.602;11.904;2023-03-05T09:20:02;18.90;63.90
59572;DHT22;59406;45.602;11.904;2023-03-05T09:22:28;19.30;64.00
59572;DHT22;59406;45.602;11.904;2023-03-05T09:24:54;19.70;59.00
59572;DHT22;59406;45.602;11.904;2023-03-05T09:27:20;19.60;60.20
59572;DHT22;59406;45.602;11.904;2023-03-05T09:29:46;20.10;58.00
59572;DHT22;59406;45.602;11.904;2023-03-05T09:32:13;20.50;57.00
59572;DHT22;59406;45.602;11.904;2023-03-05T09:34:39;20.30;55.40
59572;DHT22;59406;45.602;11.904;2023-03-05T09:37:05;19.90;57.20
59572;DHT22;59406;45.602;11.904;2023-03-05T09:39:30;19.60;58.00
59572;DHT22;59406;45.602;11.904;2023-03-05T09:52:55;20.10;56.50
59572;DHT22;59406;45.602;11.904;2023-03-05T09:55:31;20.60;56.50
59572;DHT22;59406;45.602;11.904;2023-03-05T10:00:53;21.50;53.50
59572;DHT22;59406;45.602;11.904;2023-03-05T10:06:13;22.60;50.90
59572;DHT22;59406;45.602;11.904;2023-03-05T10:08:52;22.90;52.70
59572;DHT22;59406;45.602;11.904;2023-03-05T10:14:38;23.90;45.60
59572;DHT22;59406;45.602;11.904;2023-03-05T10:17:36;24.30;48.10
59572;DHT22;59406;45.602;11.904;2023-03-05T10:28:17;22.80;49.90
59572;DHT22;59406;45.602;11.904;2023-03-05T10:36:06;24.40;45.30
59572;DHT22;59406;45.602;11.904;2023-03-05T10:38:42;24.50;45.80
59572;DHT22;59406;45.602;11.904;2023-03-05T10:41:50;23.90;45.70
59572;DHT22;59406;45.602;11.904;2023-03-05T10:44:35;24.10;44.70
59572;DHT22;59406;45.602;11.904;2023-03-05T10:47:15;24.20;43.40
59572;DHT22;59406;45.602;11.904;2023-03-05T10:49:50;23.90;45.50
59572;DHT22;59406;45.602;11.904;2023-03-05T10:52:39;23.70;46.60
59572;DHT22;59406;45.602;11.904;2023-03-05T10:55:15;24.60;45.30
59572;DHT22;59406;45.602;11.904;2023-03-05T10:57:43;24.90;45.00
59572;DHT22;59406;45.602;11.904;2023-03-05T11:00:22;25.00;44.80
59572;DHT22;59406;45.602;11.904;2023-03-05T11:08:30;26.40;40.00
59572;DHT22;59406;45.602;11.904;2023-03-05T11:14:00;25.90;42.00
59572;DHT22;59406;45.602;11.904;2023-03-05T11:16:45;25.30;41.30
59572;DHT22;59406;45.602;11.904;2023-03-05T11:22:17;24.30;43.80
59572;DHT22;59406;45.602;11.904;2023-03-05T11:27:53;26.50;39.70
59572;DHT22;59406;45.602;11.904;2023-03-05T11:30:39;26.60;38.50
59572;DHT22;59406;45.602;11.904;2023-03-05T11:33:09;26.50;38.80
59572;DHT22;59406;45.602;11.904;2023-03-05T11:35:38;26.50;39.50
59572;DHT22;59406;45.602;11.904;2023-03-05T11:38:09;25.90;41.00
59572;DHT22;59406;45.602;11.904;2023-03-05T11:40:39;26.00;38.90
59572;DHT22;59406;45.602;11.904;2023-03-05T11:43:05;25.70;42.00
59572;DHT22;59406;45.602;11.904;2023-03-05T11:45:32;26.20;40.70
59572;DHT22;59406;45.602;11.904;2023-03-05T11:48:09;25.80;42.00
59572;DHT22;59406;45.602;11.904;2023-03-05T11:50:40;26.30;41.30
59572;DHT22;59406;45.602;11.904;2023-03-05T11:55:40;26.30;38.80
59572;DHT22;59406;45.602;11.904;2023-03-05T12:00:56;26.20;40.10
59572;DHT22;59406;45.602;11.904;2023-03-05T12:03:24;27.50;38.90
59572;DHT22;59406;45.602;11.904;2023-03-05T12:06:22;27.30;38.60
59572;DHT22;59406;45.602;11.904;2023-03-05T12:08:52;26.60;37.40
59572;DHT22;59406;45.602;11.904;2023-03-05T12:11:25;25.90;39.50
59572;DHT22;59406;45.602;11.904;2023-03-05T12:16:47;25.20;41.00
59572;DHT22;59406;45.602;11.904;2023-03-05T12:19:37;25.90;41.30
59572;DHT22;59406;45.602;11.904;2023-03-05T12:22:30;25.30;39.70
59572;DHT22;59406;45.602;11.904;2023-03-05T12:27:43;26.30;39.60
59572;DHT22;59406;45.602;11.904;2023-03-05T12:33:02;26.70;38.00
59572;DHT22;59406;45.602;11.904;2023-03-05T12:35:37;27.00;38.40
59572;DHT22;59406;45.602;11.904;2023-03-05T12:38:26;26.70;37.70
59572;DHT22;59406;45.602;11.904;2023-03-05T12:46:35;28.20;36.90
59572;DHT22;59406;45.602;11.904;2023-03-05T12:51:54;28.60;37.10
59572;DHT22;59406;45.602;11.904;2023-03-05T12:56:57;28.00;35.40
59572;DHT22;59406;45.602;11.904;2023-03-05T13:00:03;28.10;36.40
59572;DHT22;59406;45.602;11.904;2023-03-05T13:04:46;27.10;36.80
59572;DHT22;59406;45.602;11.904;2023-03-05T13:07:16;27.40;36.00
59572;DHT22;59406;45.602;11.904;2023-03-05T13:09:51;27.10;36.60
59572;DHT22;59406;45.602;11.904;2023-03-05T13:12:18;28.10;36.20
59572;DHT22;59406;45.602;11.904;2023-03-05T13:15:02;28.50;34.60
59572;DHT22;59406;45.602;11.904;2023-03-05T13:17:41;29.00;33.00
59572;DHT22;59406;45.602;11.904;2023-03-05T13:25:41;27.80;31.30
59572;DHT22;59406;45.602;11.904;2023-03-05T13:28:15;27.10;32.80
59572;DHT22;59406;45.602;11.904;2023-03-05T13:30:58;26.40;34.00
59572;DHT22;59406;45.602;11.904;2023-03-05T13:33:28;26.60;35.30
59572;DHT22;59406;45.602;11.904;2023-03-05T13:35:55;27.80;33.10
59572;DHT22;59406;45.602;11.904;2023-03-05T13:38:42;27.20;33.80
59572;DHT22;59406;45.602;11.904;2023-03-05T13:44:00;26.60;34.40
59572;DHT22;59406;45.602;11.904;2023-03-05T13:48:56;26.30;35.40
59572;DHT22;59406;45.602;11.904;2023-03-05T13:51:23;26.40;34.40
59572;DHT22;59406;45.602;11.904;2023-03-05T13:54:05;26.50;35.00
59572;DHT22;59406;45.602;11.904;2023-03-05T13:56:34;25.40;36.90
59572;DHT22;59406;45.602;11.904;2023-03-05T13:59:01;24.90;38.30
59572;DHT22;59406;45.602;11.904;2023-03-05T14:01:39;24.20;37.70
59572;DHT22;59406;45.602;11.904;2023-03-05T14:06:55;25.90;35.70
59572;DHT22;59406;45.602;11.904;2023-03-05T14:14:18;26.90;31.60
59572;DHT22;59406;45.602;11.904;2023-03-05T14:16:46;25.50;33.40
59572;DHT22;59406;45.602;11.904;2023-03-05T14:19:44;24.40;36.10
59572;DHT22;59406;45.602;11.904;2023-03-05T14:22:32;24.90;34.10
59572;DHT22;59406;45.602;11.904;2023-03-05T14:24:58;25.20;35.40
59572;DHT22;59406;45.602;11.904;2023-03-05T14:27:24;25.50;34.60
59572;DHT22;59406;45.602;11.904;2023-03-05T14:29:50;25.10;34.90
59572;DHT22;59406;45.602;11.904;2023-03-05T14:32:27;24.50;35.60
59572;DHT22;59406;45.602;11.904;2023-03-05T14:34:57;23.70;36.80
59572;DHT22;59406;45.602;11.904;2023-03-05T14:37:39;23.60;39.90
59572;DHT22;59406;45.602;11.904;2023-03-05T14:45:27;24.40;36.70
59572;DHT22;59406;45.602;11.904;2023-03-05T14:47:55;24.00;38.60
59572;DHT22;59406;45.602;11.904;2023-03-05T14:50:27;25.00;37.20
59572;DHT22;59406;45.602;11.904;2023-03-05T14:52:56;25.10;37.10
59572;DHT22;59406;45.602;11.904;2023-03-05T14:55:25;24.10;38.80
59572;DHT22;59406;45.602;11.904;2023-03-05T14:57:59;24.30;38.20
59572;DHT22;59406;45.602;11.904;2023-03-05T15:00:26;24.70;37.60
59572;DHT22;59406;45.602;11.904;2023-03-05T15:02:53;24.80;37.10
59572;DHT22;59406;45.602;11.904;2023-03-05T15:05:19;23.90;38.80
59572;DHT22;59406;45.602;11.904;2023-03-05T15:07:45;23.90;38.90
59572;DHT22;59406;45.602;11.904;2023-03-05T15:10:18;24.40;37.40
59572;DHT22;59406;45.602;11.904;2023-03-05T15:12:44;24.10;37.60
59572;DHT22;59406;45.602;11.904;2023-03-05T15:15:13;23.90;38.50
59572;DHT22;59406;45.602;11.904;2023-03-05T15:17:41;23.00;45.00
59572;DHT22;59406;45.602;11.904;2023-03-05T15:20:10;21.70;50.70
59572;DHT22;59406;45.602;11.904;2023-03-05T15:22:36;21.20;51.20
59572;DHT22;59406;45.602;11.904;2023-03-05T15:25:03;20.50;54.50
59572;DHT22;59406;45.602;11.904;2023-03-05T15:27:28;20.30;55.30
59572;DHT22;59406;45.602;11.904;2023-03-05T15:29:54;20.00;56.20
59572;DHT22;59406;45.602;11.904;2023-03-05T15:32:20;19.80;56.30
59572;DHT22;59406;45.602;11.904;2023-03-05T15:34:46;19.40;57.10
59572;DHT22;59406;45.602;11.904;2023-03-05T15:37:12;18.80;59.50
59572;DHT22;59406;45.602;11.904;2023-03-05T15:39:37;19.00;58.70
59572;DHT22;59406;45.602;11.904;2023-03-05T15:42:03;18.90;60.30
59572;DHT22;59406;45.602;11.904;2023-03-05T15:44:29;18.40;64.10
59572;DHT22;59406;45.602;11.904;2023-03-05T15:46:55;18.40;64.30
59572;DHT22;59406;45.602;11.904;2023-03-05T15:49:23;18.00;65.80
59572;DHT22;59406;45.602;11.904;2023-03-05T15:51:50;18.00;66.20
59572;DHT22;59406;45.602;11.904;2023-03-05T15:54:17;18.30;64.60
59572;DHT22;59406;45.602;11.904;2023-03-05T15:56:43;18.10;66.00
59572;DHT22;59406;45.602;11.904;2023-03-05T15:59:08;18.00;66.20
59572;DHT22;59406;45.602;11.904;2023-03-05T16:01:36;17.70;66.50
59572;DHT22;59406;45.602;11.904;2023-03-05T16:04:02;17.60;66.30
59572;DHT22;59406;45.602;11.904;2023-03-05T16:06:28;17.80;66.30
59572;DHT22;59406;45.602;11.904;2023-03-05T16:08:59;17.50;66.50
59572;DHT22;59406;45.602;11.904;2023-03-05T16:11:27;17.40;66.80
59572;DHT22;59406;45.602;11.904;2023-03-05T16:13:53;17.30;66.90
59572;DHT22;59406;45.602;11.904;2023-03-05T16:16:19;16.80;67.60
59572;DHT22;59406;45.602;11.904;2023-03-05T16:18:48;16.60;68.00
59572;DHT22;59406;45.602;11.904;2023-03-05T16:21:14;16.50;68.00
59572;DHT22;59406;45.602;11.904;2023-03-05T16:23:40;16.50;68.00
59572;DHT22;59406;45.602;11.904;2023-03-05T16:26:07;16.30;68.00
59572;DHT22;59406;45.602;11.904;2023-03-05T16:28:35;16.10;68.20
59572;DHT22;59406;45.602;11.904;2023-03-05T16:31:01;15.90;68.30
59572;DHT22;59406;45.602;11.904;2023-03-05T16:33:27;15.80;68.30
59572;DHT22;59406;45.602;11.904;2023-03-05T16:36:17;15.50;68.70
59572;DHT22;59406;45.602;11.904;2023-03-05T16:38:49;15.40;70.90
59572;DHT22;59406;45.602;11.904;2023-03-05T16:41:15;15.10;71.10
59572;DHT22;59406;45.602;11.904;2023-03-05T16:43:42;14.70;71.40
59572;DHT22;59406;45.602;11.904;2023-03-05T16:46:09;14.60;71.60
59572;DHT22;59406;45.602;11.904;2023-03-05T16:48:36;14.30;72.00
59572;DHT22;59406;45.602;11.904;2023-03-05T16:51:02;14.20;72.20
59572;DHT22;59406;45.602;11.904;2023-03-05T16:53:28;14.00;72.10
59572;DHT22;59406;45.602;11.904;2023-03-05T16:55:54;14.00;72.20
59572;DHT22;59406;45.602;11.904;2023-03-05T16:58:20;13.70;72.70
59572;DHT22;59406;45.602;11.904;2023-03-05T17:00:46;13.80;72.30
59572;DHT22;59406;45.602;11.904;2023-03-05T17:03:13;13.80;72.50
59572;DHT22;59406;45.602;11.904;2023-03-05T17:05:39;13.60;72.70
59572;DHT22;59406;45.602;11.904;2023-03-05T17:08:05;13.50;73.10
59572;DHT22;59406;45.602;11.904;2023-03-05T17:10:32;13.30;73.90
59572;DHT22;59406;45.602;11.904;2023-03-05T17:12:58;13.10;74.30
59572;DHT22;59406;45.602;11.904;2023-03-05T17:15:25;13.00;74.30
59572;DHT22;59406;45.602;11.904;2023-03-05T17:17:51;13.10;74.60